createdAt,value
2023-02-17T00:00:49.422Z,7.97
2023-02-17T00:01:49.447Z,8.53
2023-02-17T00:02:49.468Z,8.04
2023-02-17T00:03:49.527Z,8.27
2023-02-17T00:04:49.538Z,7.60
2023-02-17T00:05:51.063Z,8.59
2023-02-17T00:06:49.587Z,8.25
2023-02-17T00:07:49.590Z,8.44
2023-02-17T00:08:49.604Z,8.12
2023-02-17T00:09:49.608Z,7.67
2023-02-17T00:10:49.615Z,9.17
2023-02-17T00:11:49.657Z,8.41
2023-02-17T00:12:49.688Z,7.70
2023-02-17T00:13:49.707Z,7.01
2023-02-17T00:14:49.716Z,8.46
2023-02-17T00:15:49.802Z,7.98
2023-02-17T00:16:49.797Z,8.77
2023-02-17T00:17:49.817Z,7.69
2023-02-17T00:18:49.845Z,8.72
2023-02-17T00:19:49.888Z,8.11
2023-02-17T00:20:49.920Z,8.50
2023-02-17T00:21:49.917Z,8.73
2023-02-17T00:22:49.964Z,8.33
2023-02-17T00:23:50.001Z,8.21
2023-02-17T00:24:50.033Z,8.33
2023-02-17T00:25:50.040Z,7.87
2023-02-17T00:26:50.064Z,8.43
2023-02-17T00:27:50.161Z,8.02
2023-02-17T00:28:50.291Z,7.89
2023-02-17T00:29:50.150Z,8.06
2023-02-17T00:30:50.240Z,8.75
2023-02-17T00:31:50.288Z,8.52
2023-02-17T00:32:50.266Z,8.09
2023-02-17T00:33:50.302Z,7.32
2023-02-17T00:34:50.294Z,8.08
2023-02-17T00:35:50.360Z,7.74
2023-02-17T00:36:50.363Z,8.06
2023-02-17T00:37:50.378Z,8.45
2023-02-17T00:38:50.421Z,8.05
2023-02-17T00:39:50.454Z,8.76
2023-02-17T00:40:50.468Z,8.81
2023-02-17T00:41:51.318Z,8.52
2023-02-17T00:42:50.545Z,7.85
2023-02-17T00:43:50.566Z,8.25
2023-02-17T00:44:50.600Z,7.87
2023-02-17T00:45:50.621Z,8.65
2023-02-17T00:46:50.827Z,8.80
2023-02-17T00:47:50.695Z,8.74
2023-02-17T00:48:50.780Z,9.27
2023-02-17T00:49:50.723Z,7.86
2023-02-17T00:50:50.773Z,7.76
2023-02-17T00:51:50.828Z,7.92
2023-02-17T00:52:50.844Z,8.12
2023-02-17T00:53:50.874Z,7.34
2023-02-17T00:54:50.896Z,8.43
2023-02-17T00:55:50.912Z,8.45
2023-02-17T00:56:50.928Z,8.42
2023-02-17T00:57:50.986Z,8.77
2023-02-17T00:58:51.013Z,8.70
2023-02-17T00:59:51.053Z,8.37
2023-02-17T01:00:51.065Z,8.08
2023-02-17T01:01:51.203Z,8.06
2023-02-17T01:02:51.112Z,8.52
2023-02-17T01:03:51.146Z,8.54
2023-02-17T01:04:51.175Z,8.77
2023-02-17T01:05:51.186Z,9.02
2023-02-17T01:06:51.230Z,8.64
2023-02-17T01:07:51.287Z,8.65
2023-02-17T01:08:51.288Z,8.20
2023-02-17T01:09:51.291Z,8.22
2023-02-17T01:10:51.348Z,8.22
2023-02-17T01:11:51.376Z,8.57
2023-02-17T01:12:51.408Z,8.52
2023-02-17T01:13:51.442Z,8.10
2023-02-17T01:14:51.445Z,8.34
2023-02-17T01:15:51.486Z,8.21
2023-02-17T01:16:51.519Z,8.11
2023-02-17T01:17:51.549Z,7.60
2023-02-17T01:18:51.591Z,8.60
2023-02-17T01:19:51.592Z,8.71
2023-02-17T01:20:51.643Z,7.68
2023-02-17T01:21:51.673Z,8.29
2023-02-17T01:22:51.702Z,8.23
2023-02-17T01:23:51.716Z,8.59
2023-02-17T01:24:51.731Z,8.41
2023-02-17T01:25:51.763Z,9.29
2023-02-17T01:26:51.812Z,8.66
2023-02-17T01:27:51.825Z,9.15
2023-02-17T01:28:51.867Z,8.76
2023-02-17T01:29:51.894Z,8.12
2023-02-17T01:30:51.954Z,9.07
2023-02-17T01:31:52.007Z,8.51
2023-02-17T01:32:51.963Z,8.34
2023-02-17T01:33:52.049Z,8.84
2023-02-17T01:34:52.009Z,8.64
2023-02-17T01:35:52.054Z,8.41
2023-02-17T01:36:52.061Z,7.96
2023-02-17T01:37:52.069Z,8.00
2023-02-17T01:38:52.064Z,8.70
2023-02-17T01:39:52.114Z,8.57
2023-02-17T01:40:52.095Z,8.54
2023-02-17T01:41:52.140Z,8.02
2023-02-17T01:42:52.229Z,8.55
2023-02-17T01:43:52.298Z,8.18
2023-02-17T01:44:52.270Z,8.07
2023-02-17T01:45:52.270Z,8.81
2023-02-17T01:46:52.349Z,8.34
2023-02-17T01:47:52.321Z,8.88
2023-02-17T01:48:52.369Z,8.32
2023-02-17T01:49:52.374Z,8.52
2023-02-17T01:50:52.418Z,8.54
2023-02-17T01:51:52.467Z,8.81
2023-02-17T01:52:52.485Z,8.64
2023-02-17T01:53:52.481Z,8.63
2023-02-17T01:54:52.523Z,8.93
2023-02-17T01:55:52.578Z,8.67
2023-02-17T01:56:52.655Z,8.51
2023-02-17T01:57:52.586Z,8.36
2023-02-17T01:58:52.649Z,8.58
2023-02-17T01:59:52.680Z,8.44
2023-02-17T02:00:52.720Z,8.83
2023-02-17T02:01:52.943Z,8.23
2023-02-17T02:02:52.873Z,7.85
2023-02-17T02:03:52.775Z,8.64
2023-02-17T02:04:52.823Z,8.79
2023-02-17T02:05:52.859Z,8.81
2023-02-17T02:06:52.910Z,8.40
2023-02-17T02:07:52.896Z,8.16
2023-02-17T02:08:52.935Z,8.89
2023-02-17T02:09:52.985Z,9.03
2023-02-17T02:10:53.028Z,8.51
2023-02-17T02:11:53.039Z,9.28
2023-02-17T02:12:53.110Z,8.40
2023-02-17T02:13:53.114Z,8.03
2023-02-17T02:14:53.124Z,8.56
2023-02-17T02:15:53.171Z,8.85
2023-02-17T02:16:53.197Z,7.88
2023-02-17T02:17:53.230Z,8.78
2023-02-17T02:18:53.268Z,8.67
2023-02-17T02:19:53.258Z,8.51
2023-02-17T02:20:53.309Z,8.82
2023-02-17T02:21:53.336Z,7.50
2023-02-17T02:22:53.388Z,8.67
2023-02-17T02:23:53.395Z,8.71
2023-02-17T02:24:53.426Z,7.64
2023-02-17T02:25:53.461Z,7.51
2023-02-17T02:26:53.485Z,8.17
2023-02-17T02:27:53.525Z,7.95
2023-02-17T02:28:53.556Z,7.89
2023-02-17T02:29:53.665Z,8.13
2023-02-17T02:30:53.659Z,8.01
2023-02-17T02:31:53.669Z,8.23
2023-02-17T02:32:53.658Z,9.07
2023-02-17T02:33:53.682Z,9.37
2023-02-17T02:34:53.735Z,8.10
2023-02-17T02:35:53.766Z,7.82
2023-02-17T02:36:53.820Z,7.91
2023-02-17T02:37:53.842Z,7.96
2023-02-17T02:38:53.856Z,8.49
2023-02-17T02:39:53.868Z,8.70
2023-02-17T02:40:53.912Z,7.92
2023-02-17T02:41:53.893Z,8.77
2023-02-17T02:42:53.935Z,8.37
2023-02-17T02:43:54.343Z,8.80
2023-02-17T02:44:53.986Z,9.06
2023-02-17T02:45:54.028Z,8.47
2023-02-17T02:46:54.037Z,8.82
2023-02-17T02:47:54.030Z,8.83
2023-02-17T02:48:54.050Z,8.57
2023-02-17T02:49:54.046Z,7.93
2023-02-17T02:50:54.104Z,8.60
2023-02-17T02:51:54.117Z,7.93
2023-02-17T02:52:54.159Z,8.29
2023-02-17T02:53:54.234Z,8.55
2023-02-17T02:54:54.246Z,8.03
2023-02-17T02:55:54.272Z,8.07
2023-02-17T02:56:54.286Z,7.53
2023-02-17T02:57:54.305Z,8.27
2023-02-17T02:58:54.341Z,8.77
2023-02-17T02:59:54.367Z,8.51
2023-02-17T03:00:54.471Z,7.45
2023-02-17T03:01:54.439Z,7.88
2023-02-17T03:02:54.478Z,8.94
2023-02-17T03:03:54.514Z,8.46
2023-02-17T03:04:54.535Z,8.32
2023-02-17T03:05:54.540Z,8.01
2023-02-17T03:06:54.561Z,8.37
2023-02-17T03:07:54.611Z,9.21
2023-02-17T03:08:54.657Z,8.36
2023-02-17T03:09:54.681Z,8.38
2023-02-17T03:10:54.702Z,8.25
2023-02-17T03:11:54.744Z,8.64
2023-02-17T03:12:54.760Z,8.13
2023-02-17T03:13:54.829Z,8.48
2023-02-17T03:14:54.830Z,8.32
2023-02-17T03:15:54.880Z,8.24
2023-02-17T03:16:54.921Z,8.08
2023-02-17T03:17:54.920Z,8.09
2023-02-17T03:18:54.979Z,8.49
2023-02-17T03:19:55.043Z,7.80
2023-02-17T03:20:55.047Z,7.94
2023-02-17T03:21:55.083Z,8.22
2023-02-17T03:22:55.116Z,8.57
2023-02-17T03:23:55.172Z,8.36
2023-02-17T03:24:55.181Z,8.04
2023-02-17T03:25:55.210Z,7.73
2023-02-17T03:26:55.253Z,8.75
2023-02-17T03:27:55.259Z,8.61
2023-02-17T03:28:55.310Z,8.03
2023-02-17T03:29:55.368Z,8.80
2023-02-17T03:30:55.378Z,8.64
2023-02-17T03:31:55.562Z,8.57
2023-02-17T03:32:55.454Z,8.28
2023-02-17T03:33:55.496Z,7.88
2023-02-17T03:34:55.529Z,8.13
2023-02-17T03:35:55.565Z,8.57
2023-02-17T03:36:55.589Z,7.71
2023-02-17T03:37:55.637Z,8.20
2023-02-17T03:38:55.640Z,8.71
2023-02-17T03:39:55.696Z,8.24
2023-02-17T03:40:55.735Z,8.50
2023-02-17T03:41:55.762Z,8.19
2023-02-17T03:42:55.800Z,8.35
2023-02-17T03:43:55.841Z,8.64
2023-02-17T03:44:55.895Z,8.53
2023-02-17T03:45:55.984Z,8.13
2023-02-17T03:46:55.934Z,8.66
2023-02-17T03:47:55.987Z,8.08
2023-02-17T03:48:56.018Z,9.00
2023-02-17T03:49:56.026Z,8.65
2023-02-17T03:50:56.059Z,8.66
2023-02-17T03:51:56.104Z,8.27
2023-02-17T03:52:56.118Z,7.93
2023-02-17T03:53:56.167Z,7.84
2023-02-17T03:54:56.196Z,9.04
2023-02-17T03:55:56.221Z,8.64
2023-02-17T03:56:56.245Z,8.25
2023-02-17T03:57:56.276Z,8.58
2023-02-17T03:58:56.325Z,8.08
2023-02-17T03:59:56.328Z,7.70
2023-02-17T04:00:56.399Z,8.04
2023-02-17T04:01:56.426Z,8.32
2023-02-17T04:02:56.454Z,8.84
2023-02-17T04:03:56.555Z,9.56
2023-02-17T04:04:56.524Z,8.37
2023-02-17T04:05:56.576Z,8.11
2023-02-17T04:06:56.614Z,7.97
2023-02-17T04:07:56.604Z,8.17
2023-02-17T04:08:56.661Z,7.58
2023-02-17T04:09:56.723Z,8.16
2023-02-17T04:10:56.732Z,8.67
2023-02-17T04:11:56.788Z,8.63
2023-02-17T04:12:56.816Z,8.78
2023-02-17T04:13:56.836Z,8.49
2023-02-17T04:14:56.864Z,9.00
2023-02-17T04:15:56.902Z,8.84
2023-02-17T04:16:56.924Z,8.23
2023-02-17T04:17:56.992Z,9.10
2023-02-17T04:18:57.008Z,8.84
2023-02-17T04:19:57.051Z,8.89
2023-02-17T04:20:57.084Z,8.80
2023-02-17T04:21:57.138Z,8.77
2023-02-17T04:22:57.168Z,8.69
2023-02-17T04:23:57.199Z,7.97
2023-02-17T04:24:57.220Z,8.73
2023-02-17T04:25:57.264Z,8.55
2023-02-17T04:26:57.294Z,7.87
2023-02-17T04:27:57.337Z,8.74
2023-02-17T04:28:57.371Z,8.11
2023-02-17T04:29:57.398Z,8.35
2023-02-17T04:30:57.577Z,7.89
2023-02-17T04:31:57.678Z,8.66
2023-02-17T04:32:57.511Z,8.84
2023-02-17T04:33:57.535Z,8.36
2023-02-17T04:34:57.593Z,9.13
2023-02-17T04:35:57.600Z,7.70
2023-02-17T04:36:57.647Z,9.10
2023-02-17T04:37:57.639Z,9.07
2023-02-17T04:38:57.758Z,8.51
2023-02-17T04:39:57.761Z,8.61
2023-02-17T04:40:57.774Z,7.87
2023-02-17T04:41:57.769Z,8.34
2023-02-17T04:42:57.821Z,8.46
2023-02-17T04:43:57.826Z,8.18
2023-02-17T04:44:57.865Z,8.76
2023-02-17T04:45:57.875Z,8.32
2023-02-17T04:46:57.951Z,8.23
2023-02-17T04:47:57.954Z,7.89
2023-02-17T04:48:57.988Z,9.08
2023-02-17T04:49:58.037Z,8.01
2023-02-17T04:50:58.046Z,7.67
2023-02-17T04:51:58.085Z,9.26
2023-02-17T04:52:58.088Z,9.54
2023-02-17T04:53:58.124Z,8.83
2023-02-17T04:54:58.143Z,9.14
2023-02-17T04:55:58.168Z,8.00
2023-02-17T04:56:58.222Z,8.55
2023-02-17T04:57:58.257Z,7.85
2023-02-17T04:58:58.362Z,8.19
2023-02-17T04:59:58.303Z,8.38
2023-02-17T05:00:58.306Z,7.75
2023-02-17T05:01:58.355Z,7.86
2023-02-17T05:02:58.390Z,8.15
2023-02-17T05:03:58.447Z,7.93
2023-02-17T05:04:58.496Z,7.38
2023-02-17T05:05:58.450Z,8.09
2023-02-17T05:06:58.479Z,7.99
2023-02-17T05:07:58.544Z,8.22
2023-02-17T05:08:58.553Z,7.61
2023-02-17T05:09:58.610Z,8.37
2023-02-17T05:10:58.589Z,8.35
2023-02-17T05:11:58.628Z,7.68
2023-02-17T05:12:58.674Z,7.87
2023-02-17T05:13:58.669Z,9.04
2023-02-17T05:14:58.695Z,8.39
2023-02-17T05:15:58.733Z,7.98
2023-02-17T05:16:58.719Z,8.61
2023-02-17T05:17:58.776Z,7.40
2023-02-17T05:18:58.763Z,8.25
2023-02-17T05:19:58.769Z,7.69
2023-02-17T05:20:58.779Z,7.80
2023-02-17T05:21:58.843Z,8.78
2023-02-17T05:22:58.799Z,8.29
2023-02-17T05:23:58.862Z,7.51
2023-02-17T05:24:58.885Z,8.08
2023-02-17T05:25:58.864Z,7.49
2023-02-17T05:26:58.907Z,8.39
2023-02-17T05:27:58.934Z,8.19
2023-02-17T05:28:58.980Z,8.47
2023-02-17T05:29:59.068Z,8.18
2023-02-17T05:30:59.050Z,9.23
2023-02-17T05:31:59.049Z,7.94
2023-02-17T05:32:59.026Z,7.31
2023-02-17T05:33:59.051Z,7.85
2023-02-17T05:34:59.051Z,8.33
2023-02-17T05:35:59.037Z,8.18
2023-02-17T05:36:59.063Z,7.48
2023-02-17T05:37:59.069Z,7.89
2023-02-17T05:38:59.165Z,8.07
2023-02-17T05:39:59.167Z,9.03
2023-02-17T05:40:59.197Z,8.42
2023-02-17T05:41:59.197Z,7.47
2023-02-17T05:42:59.218Z,7.51
2023-02-17T05:43:59.253Z,8.56
2023-02-17T05:44:59.303Z,7.01
2023-02-17T05:45:59.307Z,7.84
2023-02-17T05:46:59.301Z,8.39
2023-02-17T05:47:59.317Z,8.00
2023-02-17T05:48:59.278Z,8.14
2023-02-17T05:49:59.337Z,8.49
2023-02-17T05:50:59.399Z,8.80
2023-02-17T05:51:59.482Z,8.15
2023-02-17T05:52:59.621Z,7.77
2023-02-17T05:53:59.740Z,8.07
2023-02-17T05:54:59.839Z,7.74
2023-02-17T05:55:59.884Z,7.55
2023-02-17T05:57:00.002Z,7.75
2023-02-17T05:58:00.123Z,8.46
2023-02-17T05:59:00.205Z,8.49
2023-02-17T06:00:00.285Z,8.15
2023-02-17T06:01:07.417Z,7.12
2023-02-17T06:02:00.405Z,7.69
2023-02-17T06:03:00.411Z,8.15
2023-02-17T06:04:00.379Z,8.25
2023-02-17T06:05:00.494Z,7.42
2023-02-17T06:06:00.350Z,8.64
2023-02-17T06:07:00.379Z,8.12
2023-02-17T06:08:00.326Z,7.84
2023-02-17T06:09:00.420Z,8.33
2023-02-17T06:10:00.355Z,7.87
2023-02-17T06:11:00.320Z,7.71
2023-02-17T06:12:00.322Z,7.84
2023-02-17T06:13:00.290Z,8.47
2023-02-17T06:14:00.305Z,7.68
2023-02-17T06:15:00.313Z,8.65
2023-02-17T06:16:00.331Z,7.80
2023-02-17T06:17:01.069Z,7.49
2023-02-17T06:18:00.274Z,7.69
2023-02-17T06:19:00.262Z,7.63
2023-02-17T06:20:00.254Z,8.07
2023-02-17T06:21:00.228Z,8.18
2023-02-17T06:22:00.266Z,7.21
2023-02-17T06:23:00.228Z,8.02
2023-02-17T06:24:00.243Z,7.83
2023-02-17T06:25:00.216Z,8.05
2023-02-17T06:26:00.217Z,8.38
2023-02-17T06:27:00.221Z,8.10
2023-02-17T06:28:00.184Z,7.81
2023-02-17T06:29:00.188Z,7.89
2023-02-17T06:30:00.242Z,8.32
2023-02-17T06:31:00.217Z,7.60
2023-02-17T06:32:00.337Z,8.21
2023-02-17T06:33:00.178Z,8.45
2023-02-17T06:34:00.165Z,7.69
2023-02-17T06:35:00.119Z,7.53
2023-02-17T06:36:00.140Z,6.98
2023-02-17T06:37:00.128Z,8.28
2023-02-17T06:38:00.172Z,7.84
2023-02-17T06:39:00.150Z,8.26
2023-02-17T06:40:00.169Z,7.52
2023-02-17T06:41:00.117Z,8.67
2023-02-17T06:42:00.124Z,8.42
2023-02-17T06:43:00.098Z,7.24
2023-02-17T06:44:00.112Z,7.39
2023-02-17T06:45:00.122Z,8.87
2023-02-17T06:46:07.440Z,7.55
2023-02-17T06:47:00.116Z,8.14
2023-02-17T09:05:02.770Z,7.41
2023-02-17T09:06:02.770Z,7.93
2023-02-17T09:07:02.795Z,7.39
2023-02-17T09:08:02.865Z,7.89
2023-02-17T09:09:02.880Z,8.15
2023-02-17T09:10:02.903Z,7.84
2023-02-17T09:11:02.940Z,7.98
2023-02-17T09:12:02.975Z,7.59
2023-02-17T09:22:03.393Z,7.75
2023-02-17T09:23:03.472Z,8.51
2023-02-17T09:24:03.529Z,7.20
2023-02-17T09:25:03.590Z,7.47
2023-02-17T09:26:03.780Z,7.82
2023-02-17T09:27:03.680Z,7.95
2023-02-17T09:28:03.694Z,7.97
2023-02-17T09:29:03.766Z,7.69
2023-02-17T09:30:03.842Z,7.86
2023-02-17T09:31:03.865Z,7.80
2023-02-17T09:32:04.064Z,8.38
2023-02-17T09:33:03.886Z,7.84
2023-02-17T09:34:03.941Z,8.37
2023-02-17T09:35:03.956Z,7.44
2023-02-17T09:36:04.220Z,7.07
2023-02-17T09:37:04.071Z,8.23
2023-02-17T09:38:04.078Z,7.90
2023-02-17T09:39:04.116Z,7.89
2023-02-17T09:40:04.162Z,8.34
2023-02-17T09:41:04.214Z,8.09
2023-02-17T09:42:04.224Z,8.27
2023-02-17T09:43:04.275Z,7.95
2023-02-17T09:44:04.371Z,7.17
2023-02-17T09:45:04.404Z,7.51
2023-02-17T09:46:04.626Z,8.26
2023-02-17T09:47:04.530Z,8.12
2023-02-17T09:48:04.561Z,7.42
2023-02-17T09:49:04.613Z,7.98
2023-02-17T09:50:04.677Z,8.07
2023-02-17T09:51:04.665Z,7.69
2023-02-17T09:52:04.718Z,7.24
2023-02-17T09:53:04.787Z,7.97
2023-02-17T09:55:04.920Z,8.43
2023-02-17T09:56:05.384Z,7.70
2023-02-17T09:57:05.087Z,8.60
2023-02-17T09:58:05.072Z,8.07
2023-02-17T09:59:05.092Z,8.08
2023-02-17T10:00:05.216Z,7.33
2023-02-17T10:01:05.276Z,7.78
2023-02-17T10:02:05.334Z,7.28
2023-02-17T10:03:05.372Z,8.44
2023-02-17T10:16:06.553Z,8.26
2023-02-17T12:06:12.635Z,7.30
2023-02-17T12:07:12.736Z,6.88
2023-02-17T12:08:12.795Z,6.91
2023-02-17T12:09:12.840Z,8.08
2023-02-17T12:10:12.902Z,7.18
2023-02-17T12:11:12.979Z,6.48
2023-02-17T12:12:13.059Z,7.44
2023-02-17T12:13:13.091Z,6.11
2023-02-17T12:14:13.165Z,6.51
2023-02-17T12:15:13.247Z,7.59
2023-02-17T12:16:13.315Z,7.06
2023-02-17T12:17:13.333Z,7.56
2023-02-17T12:18:13.405Z,7.01
2023-02-17T12:19:13.425Z,6.03
2023-02-17T12:20:13.501Z,6.59
2023-02-17T12:21:13.593Z,7.78
2023-02-17T12:22:13.601Z,7.57
2023-02-17T12:23:13.669Z,5.92
2023-02-17T12:24:13.713Z,6.73
2023-02-17T12:25:13.834Z,6.80
2023-02-17T12:26:13.850Z,6.14
2023-02-17T12:27:13.885Z,5.85
2023-02-17T12:28:13.939Z,6.07
2023-02-17T12:29:13.979Z,6.95
2023-02-17T12:30:14.199Z,6.73
2023-02-17T12:31:14.276Z,6.19
2023-02-17T12:32:14.180Z,6.35
2023-02-17T12:33:14.181Z,6.63
2023-02-17T12:34:14.252Z,6.71
2023-02-17T12:35:14.296Z,6.47
2023-02-17T12:36:14.351Z,6.37
2023-02-17T12:37:14.405Z,6.98
2023-02-17T12:38:14.438Z,6.76
2023-02-17T12:39:14.582Z,6.69
2023-02-17T12:40:14.551Z,6.33
2023-02-17T12:41:14.594Z,6.74
2023-02-17T12:42:14.666Z,6.47
2023-02-17T12:43:14.717Z,6.37
2023-02-17T12:44:14.784Z,6.65
2023-02-17T12:45:14.821Z,6.93
2023-02-17T12:46:14.915Z,6.38
2023-02-17T12:47:14.887Z,6.68
2023-02-17T12:48:14.960Z,6.05
2023-02-17T12:49:15.070Z,6.05
2023-02-17T12:50:15.202Z,6.10
2023-02-17T12:51:15.179Z,6.79
2023-02-17T12:52:15.201Z,6.49
2023-02-17T12:53:15.245Z,7.08
2023-02-17T12:54:15.314Z,6.66
2023-02-17T12:55:15.367Z,6.01
2023-02-17T12:56:15.427Z,6.07
2023-02-17T12:57:15.473Z,6.35
2023-02-17T12:58:15.514Z,6.47
2023-02-17T12:59:15.564Z,6.63
2023-02-17T13:00:15.638Z,6.70
2023-02-17T13:01:15.731Z,6.49
2023-02-17T13:02:15.883Z,6.30
2023-02-17T13:03:15.889Z,6.14
2023-02-17T13:04:15.929Z,6.39
2023-02-17T13:05:15.965Z,6.30
2023-02-17T13:06:15.994Z,6.28
2023-02-17T13:07:16.056Z,5.44
2023-02-17T13:08:16.115Z,5.66
2023-02-17T13:09:16.174Z,6.33
2023-02-17T13:10:16.216Z,6.01
2023-02-17T13:11:16.256Z,5.48
2023-02-17T13:12:16.336Z,6.49
2023-02-17T13:13:16.402Z,6.02
2023-02-17T13:14:16.419Z,6.52
2023-02-17T13:15:16.516Z,6.08
2023-02-17T13:16:16.576Z,6.09
2023-02-17T13:17:16.591Z,5.83
2023-02-17T13:18:16.639Z,6.65
2023-02-17T13:19:16.720Z,6.22
2023-02-17T13:20:16.756Z,5.95
2023-02-17T13:21:16.778Z,5.96
2023-02-17T13:22:16.820Z,6.07
2023-02-17T13:23:16.881Z,6.86
2023-02-17T13:24:16.935Z,6.11
2023-02-17T13:25:16.998Z,5.97
2023-02-17T13:26:17.059Z,5.88
2023-02-17T13:27:17.113Z,5.85
2023-02-17T13:28:17.146Z,5.87
2023-02-17T13:29:17.205Z,5.58
2023-02-17T13:30:17.377Z,5.88
2023-02-17T13:31:17.421Z,5.65
2023-02-17T13:32:17.470Z,5.88
2023-02-17T13:33:17.391Z,5.73
2023-02-17T13:34:17.474Z,5.45
2023-02-17T13:35:17.523Z,5.27
2023-02-17T13:36:17.554Z,5.46
2023-02-17T13:37:17.618Z,5.66
2023-02-17T13:38:17.651Z,5.71
2023-02-17T13:39:17.789Z,6.41
2023-02-17T13:40:17.811Z,5.36
2023-02-17T13:41:17.826Z,5.55
2023-02-17T13:43:17.932Z,5.60
2023-02-17T13:44:18.013Z,5.43
2023-02-17T13:45:18.055Z,5.36
2023-02-17T13:46:18.223Z,5.85
2023-02-17T13:47:18.163Z,5.37
2023-02-17T13:48:18.198Z,5.24
2023-02-17T13:49:18.258Z,5.71
2023-02-17T13:50:18.333Z,5.98
2023-02-17T14:24:20.274Z,5.45
2023-02-17T14:25:20.345Z,5.19
2023-02-17T14:28:20.550Z,4.60
2023-02-17T14:29:20.594Z,4.64
2023-02-17T14:30:20.675Z,5.46
2023-02-17T14:31:20.768Z,5.46
2023-02-17T14:32:20.787Z,4.93
2023-02-17T14:33:20.993Z,5.16
2023-02-17T14:34:20.897Z,5.48
2023-02-17T14:35:20.968Z,4.90
2023-02-17T14:36:21.009Z,4.41
2023-02-17T14:37:21.069Z,4.88
2023-02-17T14:39:21.186Z,4.87
2023-02-17T14:40:21.192Z,4.83
2023-02-17T14:41:21.225Z,4.30
2023-02-17T14:42:21.270Z,4.96
2023-02-17T14:43:21.314Z,5.13
2023-02-17T14:44:21.347Z,5.12
2023-02-17T14:45:21.425Z,4.90
2023-02-17T14:46:21.433Z,4.65
2023-02-17T14:47:21.494Z,4.95
2023-02-17T14:48:21.485Z,4.64
2023-02-17T14:49:21.497Z,4.38
2023-02-17T14:50:21.594Z,4.82
2023-02-17T14:51:21.613Z,4.60
2023-02-17T14:52:21.621Z,5.40
2023-02-17T14:53:21.632Z,5.38
2023-02-17T14:54:21.624Z,4.92
2023-02-17T14:55:21.671Z,4.48
2023-02-17T14:56:22.227Z,4.51
2023-02-17T14:57:21.689Z,3.90
2023-02-17T14:58:21.884Z,4.75
2023-02-17T14:59:21.738Z,4.89
2023-02-17T15:23:22.553Z,4.62
2023-02-17T15:24:22.657Z,4.06
2023-02-17T15:25:22.739Z,4.74
2023-02-17T15:26:22.739Z,4.43
2023-02-17T15:27:22.712Z,4.21
2023-02-17T15:28:22.705Z,4.24
2023-02-17T15:29:22.744Z,4.03
2023-02-17T15:30:22.841Z,3.90
2023-02-17T15:31:22.864Z,4.03
2023-02-17T15:32:22.902Z,4.35
2023-02-17T15:33:22.782Z,4.16
2023-02-17T15:34:22.793Z,4.16
2023-02-17T15:35:22.819Z,3.85
2023-02-17T15:36:22.865Z,4.37
2023-02-17T15:37:23.135Z,4.18
2023-02-17T15:38:23.080Z,4.53
2023-02-17T15:39:23.156Z,4.55
2023-02-17T15:40:23.172Z,4.07
2023-02-17T15:41:23.189Z,3.75
2023-02-17T15:42:23.153Z,4.44
2023-02-17T15:43:23.197Z,4.60
2023-02-17T15:44:23.163Z,4.10
2023-02-17T15:45:23.232Z,4.12
2023-02-17T15:46:23.366Z,4.07
2023-02-17T15:47:23.431Z,4.13
2023-02-17T15:48:23.453Z,3.49
2023-02-17T15:49:23.440Z,3.73
2023-02-17T15:50:23.472Z,3.70
2023-02-17T15:51:23.459Z,3.62
2023-02-17T15:52:23.449Z,3.86
2023-02-17T15:53:23.533Z,3.96
2023-02-17T15:54:23.646Z,4.00
2023-02-17T15:55:23.729Z,3.76
2023-02-17T15:56:23.872Z,3.77
2023-02-17T15:57:23.897Z,3.70
2023-02-17T15:58:23.908Z,4.25
2023-02-17T15:59:23.926Z,3.38
2023-02-17T16:00:23.952Z,3.82
2023-02-17T16:01:23.961Z,3.80
2023-02-17T16:02:23.936Z,3.65
2023-02-17T16:03:24.090Z,3.47
2023-02-17T16:04:24.040Z,4.12
2023-02-17T16:05:24.024Z,3.92
2023-02-17T16:06:24.042Z,3.99
2023-02-17T16:07:24.037Z,3.83
2023-02-17T16:08:24.057Z,4.70
2023-02-17T16:09:24.120Z,3.53
2023-02-17T16:10:24.261Z,3.87
2023-02-17T16:11:24.235Z,4.60
2023-02-17T16:12:24.272Z,4.16
2023-02-17T16:13:24.278Z,3.65
2023-02-17T16:14:24.288Z,3.83
2023-02-17T16:15:24.303Z,4.08
2023-02-17T16:16:24.467Z,3.96
2023-02-17T16:17:24.365Z,4.65
2023-02-17T16:18:24.383Z,4.31
2023-02-17T16:19:24.409Z,4.61
2023-02-17T16:20:24.421Z,4.22
2023-02-17T16:21:24.444Z,4.23
2023-02-17T16:22:24.453Z,3.99
2023-02-17T16:23:24.462Z,3.69
2023-02-17T16:24:24.507Z,4.16
2023-02-17T16:25:24.520Z,4.06
2023-02-17T16:26:24.548Z,4.01
2023-02-17T16:27:24.537Z,4.54
2023-02-17T16:28:24.595Z,4.22
2023-02-17T16:29:24.618Z,4.04
2023-02-17T16:30:24.717Z,4.49
2023-02-17T16:31:24.794Z,4.37
2023-02-17T16:32:24.821Z,4.53
2023-02-17T16:33:24.736Z,4.35
2023-02-17T16:34:24.756Z,4.24
2023-02-17T16:35:24.780Z,4.57
2023-02-17T16:36:24.835Z,4.64
2023-02-17T16:37:24.833Z,4.50
2023-02-17T16:38:24.877Z,4.28
2023-02-17T16:39:24.923Z,4.94
2023-02-17T16:40:24.940Z,4.52
2023-02-17T16:41:24.982Z,4.54
2023-02-17T16:42:25.042Z,4.92
2023-02-17T16:43:25.048Z,4.50
2023-02-17T16:44:25.056Z,4.55
2023-02-17T16:45:25.170Z,4.60
2023-02-17T16:46:25.136Z,4.64
2023-02-17T16:47:25.166Z,3.93
2023-02-17T16:48:25.170Z,4.64
2023-02-17T16:49:25.226Z,4.39
2023-02-17T16:50:25.277Z,4.13
2023-02-17T16:51:25.271Z,4.88
2023-02-17T16:52:25.331Z,5.42
2023-02-17T16:53:25.304Z,5.33
2023-02-17T16:54:25.385Z,4.83
2023-02-17T16:55:25.405Z,5.33
2023-02-17T16:56:25.450Z,4.82
2023-02-17T16:57:25.464Z,4.67
2023-02-17T16:58:25.521Z,5.17
2023-02-17T16:59:25.535Z,4.99
2023-02-17T17:00:25.563Z,4.08
2023-02-17T17:01:25.572Z,5.25
2023-02-17T17:02:25.645Z,5.92
2023-02-17T17:03:25.711Z,5.05
2023-02-17T17:04:25.667Z,5.35
2023-02-17T17:05:25.702Z,4.75
2023-02-17T17:06:25.750Z,4.89
2023-02-17T17:07:25.733Z,4.66
2023-02-17T17:08:25.780Z,5.00
2023-02-17T17:09:25.806Z,4.90
2023-02-17T17:10:25.832Z,4.91
2023-02-17T17:11:25.897Z,5.10
2023-02-17T17:12:25.914Z,4.91
2023-02-17T17:13:25.968Z,5.71
2023-02-17T17:14:25.973Z,4.72
2023-02-17T17:15:25.960Z,6.06
2023-02-17T17:16:26.086Z,5.19
2023-02-17T17:17:26.046Z,4.90
2023-02-17T17:18:26.100Z,5.67
2023-02-17T17:19:26.130Z,5.10
2023-02-17T17:20:26.329Z,5.03
2023-02-17T17:21:26.177Z,4.96
2023-02-17T17:22:26.177Z,5.39
2023-02-17T17:23:26.250Z,5.22
2023-02-17T17:24:26.254Z,5.60
2023-02-17T17:25:26.264Z,5.04
2023-02-17T17:26:26.283Z,5.23
2023-02-17T17:27:26.335Z,5.25
2023-02-17T17:28:26.357Z,5.49
2023-02-17T17:29:26.328Z,5.97
2023-02-17T17:30:26.389Z,5.63
2023-02-17T17:31:26.477Z,5.36
2023-02-17T17:32:26.565Z,5.38
2023-02-17T17:33:26.510Z,5.27
2023-02-17T17:34:26.519Z,5.34
2023-02-17T17:35:26.588Z,5.80
2023-02-17T17:36:26.628Z,5.61
2023-02-17T17:37:26.591Z,5.75
2023-02-17T17:38:26.639Z,5.68
2023-02-17T17:39:26.676Z,6.38
2023-02-17T17:40:26.724Z,6.06
2023-02-17T17:41:26.728Z,5.29
2023-02-17T17:42:26.797Z,5.57
2023-02-17T17:43:26.789Z,6.31
2023-02-17T17:44:26.842Z,5.33
2023-02-17T17:45:26.896Z,5.48
2023-02-17T17:46:26.967Z,5.55
2023-02-17T17:47:30.154Z,5.69
2023-02-17T17:48:27.799Z,6.20
2023-02-17T17:49:26.937Z,6.03
2023-02-17T17:50:26.914Z,6.14
2023-02-17T17:51:26.937Z,6.29
2023-02-17T17:52:26.901Z,5.97
2023-02-17T17:53:26.925Z,6.28
2023-02-17T17:54:26.923Z,7.16
2023-02-17T17:55:26.909Z,6.28
2023-02-17T17:56:26.875Z,6.74
2023-02-17T17:57:26.904Z,6.47
2023-02-17T17:58:26.886Z,7.04
2023-02-17T17:59:26.899Z,6.82
2023-02-17T18:00:26.872Z,6.03
2023-02-17T18:03:26.888Z,7.05
2023-02-17T18:04:27.014Z,6.68
2023-02-17T18:05:26.827Z,6.67
2023-02-17T18:06:26.802Z,6.50
2023-02-17T18:09:31.803Z,6.80
2023-02-17T18:10:27.920Z,6.73
2023-02-17T18:11:26.754Z,6.79
2023-02-17T18:12:26.762Z,6.91
2023-02-17T18:13:26.740Z,6.35
2023-02-17T18:14:26.772Z,7.69
2023-02-17T18:15:26.777Z,7.54
2023-02-17T18:16:26.731Z,7.61
2023-02-17T18:17:26.729Z,7.01
2023-02-17T18:18:26.702Z,7.70
2023-02-17T18:19:26.724Z,7.35
2023-02-17T18:20:26.724Z,7.83
2023-02-17T18:21:26.770Z,8.06
2023-02-17T18:22:26.853Z,7.55
2023-02-17T18:23:26.883Z,7.32
2023-02-17T18:24:26.915Z,7.72
2023-02-17T18:25:26.992Z,7.50
2023-02-17T18:26:27.062Z,7.37
2023-02-17T18:27:27.090Z,7.26
2023-02-17T18:28:27.152Z,7.53
2023-02-17T18:29:27.188Z,8.15
2023-02-17T18:30:27.478Z,7.80
2023-02-17T18:31:29.488Z,7.47
2023-02-17T18:32:27.383Z,7.28
2023-02-17T18:33:27.420Z,7.72
2023-02-17T18:34:27.484Z,7.14
2023-02-17T18:35:27.558Z,7.52
2023-02-17T18:36:27.620Z,7.45
2023-02-17T18:37:27.670Z,7.12
2023-02-17T18:38:27.734Z,7.55
2023-02-17T18:39:27.789Z,7.93
2023-02-17T18:40:27.871Z,8.58
2023-02-17T18:41:27.946Z,7.98
2023-02-17T18:42:27.981Z,8.19
2023-02-17T18:43:28.047Z,7.97
2023-02-17T18:44:28.096Z,7.62
2023-02-17T18:45:28.186Z,8.10
2023-02-17T18:46:28.261Z,7.86
2023-02-17T18:47:28.316Z,7.88
2023-02-17T18:48:28.343Z,8.28
2023-02-17T18:49:29.330Z,7.94
2023-02-17T18:50:28.495Z,8.45
2023-02-17T18:51:28.566Z,8.87